Time;durP1;ratioP1;P1;durP2;ratioP2;P2;SDS_P1;SDS_P2;PMS_P1;PMS_P2;Temp;Humidity;BMP_temperature;BMP_pressure;BME280_temperature;BME280_humidity;BME280_pressure;Samples;Min_cycle;Max_cycle;Signal;HPM_P1;HPM_P2
2022/05/17 00:01:19;;;;;;;2.93;2.43;;;;;;;;;;5061900;28;20421;-73
2022/05/17 00:03:44;;;;;;;9.90;3.17;;;;;;;;;;5064269;28;20844;-73
2022/05/17 00:06:11;;;;;;;3.70;2.43;;;;;;;;;;5062907;28;20417;-72
2022/05/17 00:08:38;;;;;;;2.67;2.57;;;;;;;;;;5066867;28;20433;-72
2022/05/17 00:11:06;;;;;;;5.43;2.70;;;;;;;;;;5063261;28;20421;-72
2022/05/17 00:13:32;;;;;;;4.57;1.67;;;;;;;;;;5067778;28;20472;-74
2022/05/17 00:15:59;;;;;;;3.37;2.37;;;;;;;;;;5066798;28;20452;-72
2022/05/17 00:18:25;;;;;;;9.70;2.63;;;;;;;;;;5068479;28;20947;-73
2022/05/17 00:20:51;;;;;;;2.30;2.20;;;;;;;;;;5063074;28;20429;-72
2022/05/17 00:23:19;;;;;;;7.87;2.77;;;;;;;;;;5067125;28;20428;-72
2022/05/17 00:25:47;;;;;;;4.00;2.00;;;;;;;;;;5068056;28;20428;-73
2022/05/17 00:28:14;;;;;;;5.37;1.40;;;;;;;;;;5068184;28;20421;-71
2022/05/17 00:30:40;;;;;;;4.00;2.47;;;;;;;;;;5067827;28;20430;-73
2022/05/17 00:33:06;;;;;;;5.37;1.97;;;;;;;;;;5064520;28;20483;-74
2022/05/17 00:35:32;;;;;;;4.43;1.70;;;;;;;;;;5062315;28;20932;-73
2022/05/17 00:37:58;;;;;;;2.23;2.20;;;;;;;;;;5068833;28;20913;-73
2022/05/17 00:40:24;;;;;;;2.13;2.00;;;;;;;;;;5067215;28;20430;-73
2022/05/17 00:42:50;;;;;;;3.07;2.60;;;;;;;;;;5063436;28;20437;-73
2022/05/17 00:45:16;;;;;;;5.57;2.20;;;;;;;;;;5065102;28;20433;-74
2022/05/17 00:47:43;;;;;;;1.90;1.83;;;;;;;;;;5067292;28;20939;-72
2022/05/17 00:50:21;;;;;;;1.77;1.67;;;;;;;;;;5063526;28;20515;-72
2022/05/17 00:53:02;;;;;;;4.33;2.10;;;;;;;;;;5066141;28;20516;-72
2022/05/17 00:55:29;;;;;;;2.93;2.37;;;;;;;;;;5064952;28;20452;-73
2022/05/17 00:57:58;;;;;;;7.30;3.50;;;;;;;;;;5064196;28;20517;-73
2022/05/17 01:00:25;;;;;;;1.97;1.87;;;;;;;;;;5065256;28;20437;-72
2022/05/17 01:02:53;;;;;;;1.60;1.50;;;;;;;;;;5065826;28;21143;-72
2022/05/17 01:05:20;;;;;;;4.77;2.53;;;;;;;;;;5064226;28;20468;-73
2022/05/17 01:07:48;;;;;;;1.90;1.80;;;;;;;;;;5064957;28;20437;-73
2022/05/17 01:10:14;;;;;;;2.40;1.70;;;;;;;;;;5065992;28;20425;-73
2022/05/17 01:12:41;;;;;;;2.30;2.03;;;;;;;;;;5068232;28;20441;-74
2022/05/17 01:15:08;;;;;;;7.20;1.77;;;;;;;;;;5061825;28;20485;-74
2022/05/17 01:17:35;;;;;;;4.87;2.30;;;;;;;;;;5067001;28;20430;-74
2022/05/17 01:20:01;;;;;;;2.20;1.63;;;;;;;;;;5065635;28;20437;-74
2022/05/17 01:22:28;;;;;;;2.00;1.80;;;;;;;;;;5061418;28;20547;-73
2022/05/17 01:24:54;;;;;;;2.30;2.13;;;;;;;;;;5066556;28;20429;-73
2022/05/17 01:27:39;;;;;;;2.20;2.10;;;;;;;;;;5065873;28;20960;-73
2022/05/17 01:30:05;;;;;;;4.57;3.17;;;;;;;;;;5068969;28;20801;-72
2022/05/17 01:32:31;;;;;;;5.83;1.97;;;;;;;;;;5070937;28;20429;-74
2022/05/17 01:34:57;;;;;;;2.37;1.63;;;;;;;;;;5071554;28;20500;-74
2022/05/17 01:37:23;;;;;;;1.90;1.90;;;;;;;;;;5070193;28;20512;-73
2022/05/17 01:39:49;;;;;;;2.97;2.17;;;;;;;;;;5071731;28;20429;-73
2022/05/17 01:42:15;;;;;;;2.00;1.93;;;;;;;;;;5063561;28;20434;-71
2022/05/17 01:44:43;;;;;;;5.93;1.97;;;;;;;;;;5068379;28;20449;-71
2022/05/17 01:47:09;;;;;;;7.03;1.77;;;;;;;;;;5067821;28;20422;-73
2022/05/17 01:49:35;;;;;;;2.50;2.30;;;;;;;;;;5068493;28;20479;-72
2022/05/17 01:52:01;;;;;;;7.83;2.20;;;;;;;;;;5065641;28;20433;-71
2022/05/17 01:54:29;;;;;;;2.43;2.10;;;;;;;;;;5066950;28;20501;-75
2022/05/17 01:56:55;;;;;;;8.23;2.87;;;;;;;;;;5067749;28;20422;-72
2022/05/17 01:59:21;;;;;;;5.70;2.97;;;;;;;;;;5070281;28;20482;-72
2022/05/17 02:01:47;;;;;;;2.40;2.20;;;;;;;;;;5067339;28;20434;-74
2022/05/17 02:04:14;;;;;;;7.50;2.50;;;;;;;;;;5067657;28;20445;-73
2022/05/17 02:06:40;;;;;;;1.60;1.60;;;;;;;;;;5069367;28;20425;-73
2022/05/17 02:09:06;;;;;;;3.33;1.90;;;;;;;;;;5069427;28;20520;-72
2022/05/17 02:11:32;;;;;;;2.30;2.20;;;;;;;;;;5068471;28;20421;-74
2022/05/17 02:13:58;;;;;;;3.30;2.10;;;;;;;;;;5069982;28;20496;-74
2022/05/17 02:16:24;;;;;;;4.80;2.63;;;;;;;;;;5070782;28;20440;-74
2022/05/17 02:18:50;;;;;;;4.80;2.97;;;;;;;;;;5070940;28;20487;-74
2022/05/17 02:21:16;;;;;;;2.13;2.13;;;;;;;;;;5064938;28;20441;-72
2022/05/17 02:23:42;;;;;;;2.67;2.40;;;;;;;;;;5067802;28;21089;-72
2022/05/17 02:26:08;;;;;;;2.30;2.20;;;;;;;;;;5070861;28;20430;-73
2022/05/17 02:28:35;;;;;;;2.00;2.00;;;;;;;;;;5067881;28;20508;-73
2022/05/17 02:31:01;;;;;;;2.40;2.30;;;;;;;;;;5069297;28;20440;-74
2022/05/17 02:33:27;;;;;;;2.47;2.30;;;;;;;;;;5066802;28;20516;-73
2022/05/17 02:35:54;;;;;;;3.20;2.90;;;;;;;;;;5067839;28;20917;-72
2022/05/17 02:38:20;;;;;;;10.57;2.97;;;;;;;;;;5069085;28;20429;-73
2022/05/17 02:40:46;;;;;;;4.80;2.20;;;;;;;;;;5066272;28;20441;-72
2022/05/17 02:43:13;;;;;;;10.13;2.83;;;;;;;;;;5068503;28;20913;-72
2022/05/17 02:45:39;;;;;;;3.53;2.33;;;;;;;;;;5066279;28;20429;-72
2022/05/17 02:48:05;;;;;;;3.30;2.60;;;;;;;;;;5069977;28;20816;-72
2022/05/17 02:50:32;;;;;;;7.30;2.67;;;;;;;;;;5065658;28;20480;-73
2022/05/17 02:52:58;;;;;;;4.70;3.17;;;;;;;;;;5070495;28;20430;-71
2022/05/17 02:55:24;;;;;;;2.70;2.40;;;;;;;;;;5069835;28;20485;-73
2022/05/17 02:57:50;;;;;;;7.37;3.17;;;;;;;;;;5067962;28;20427;-73
2022/05/17 03:00:16;;;;;;;4.40;3.23;;;;;;;;;;5065600;28;20429;-71
2022/05/17 03:02:42;;;;;;;2.87;2.17;;;;;;;;;;5067209;28;20422;-73
2022/05/17 03:05:09;;;;;;;3.23;2.40;;;;;;;;;;5067967;28;20468;-73
2022/05/17 03:07:35;;;;;;;3.23;2.30;;;;;;;;;;5067446;28;20428;-74
2022/05/17 03:10:01;;;;;;;3.60;2.00;;;;;;;;;;5066393;28;20433;-73
2022/05/17 03:12:27;;;;;;;6.40;2.63;;;;;;;;;;5067356;28;20421;-71
2022/05/17 03:14:53;;;;;;;9.20;2.20;;;;;;;;;;5068227;28;20485;-73
2022/05/17 03:17:19;;;;;;;6.60;2.80;;;;;;;;;;5066535;28;20464;-74
2022/05/17 03:19:45;;;;;;;2.90;2.70;;;;;;;;;;5065344;28;20441;-71
2022/05/17 03:22:11;;;;;;;4.73;2.00;;;;;;;;;;5063958;28;20421;-72
2022/05/17 03:24:38;;;;;;;2.60;2.40;;;;;;;;;;5064035;28;20838;-74
2022/05/17 03:27:04;;;;;;;7.57;2.63;;;;;;;;;;5069270;28;20430;-73
2022/05/17 03:29:30;;;;;;;4.63;2.97;;;;;;;;;;5067495;28;20433;-74
2022/05/17 03:31:56;;;;;;;3.80;3.60;;;;;;;;;;5065963;28;20495;-72
2022/05/17 03:34:22;;;;;;;2.70;2.57;;;;;;;;;;5066471;28;20562;-72
2022/05/17 03:36:48;;;;;;;5.20;3.20;;;;;;;;;;5069835;28;20994;-72
2022/05/17 03:39:14;;;;;;;4.43;3.00;;;;;;;;;;5067271;28;20438;-73
2022/05/17 03:41:40;;;;;;;2.73;2.63;;;;;;;;;;5065980;28;20436;-72
2022/05/17 03:44:06;;;;;;;3.57;2.23;;;;;;;;;;5065751;28;20441;-73
2022/05/17 03:46:32;;;;;;;6.03;2.63;;;;;;;;;;5066070;28;20980;-74
2022/05/17 03:49:00;;;;;;;2.40;2.00;;;;;;;;;;5067706;28;20507;-73
2022/05/17 03:51:27;;;;;;;2.40;2.30;;;;;;;;;;5067242;28;20457;-73
2022/05/17 03:53:53;;;;;;;2.60;2.03;;;;;;;;;;5065999;28;20479;-72
2022/05/17 03:56:19;;;;;;;9.53;2.97;;;;;;;;;;5066107;28;20465;-74
2022/05/17 03:58:45;;;;;;;7.60;2.67;;;;;;;;;;5069353;28;20439;-72
2022/05/17 04:01:12;;;;;;;3.40;2.00;;;;;;;;;;5067388;28;20835;-72
2022/05/17 04:03:38;;;;;;;2.23;2.13;;;;;;;;;;5060877;28;20437;-73
2022/05/17 04:06:05;;;;;;;3.97;2.30;;;;;;;;;;5067072;28;20487;-71
2022/05/17 04:08:31;;;;;;;4.63;1.90;;;;;;;;;;5068576;28;20516;-73
2022/05/17 04:10:57;;;;;;;6.17;2.03;;;;;;;;;;5067852;28;20563;-74
2022/05/17 04:13:26;;;;;;;4.23;2.80;;;;;;;;;;5062237;28;20793;-74
2022/05/17 04:15:52;;;;;;;3.17;2.17;;;;;;;;;;5065133;28;20439;-74
2022/05/17 04:18:18;;;;;;;6.30;2.90;;;;;;;;;;5065905;28;20547;-73
2022/05/17 04:20:44;;;;;;;3.10;2.77;;;;;;;;;;5068569;28;20417;-73
2022/05/17 04:23:10;;;;;;;3.57;2.67;;;;;;;;;;5065830;28;20433;-71
2022/05/17 04:25:36;;;;;;;3.70;2.10;;;;;;;;;;5066564;28;20432;-72
2022/05/17 04:28:02;;;;;;;3.47;2.47;;;;;;;;;;5068660;28;20460;-73
2022/05/17 04:30:28;;;;;;;18.13;3.03;;;;;;;;;;5068458;28;20426;-73
2022/05/17 04:32:54;;;;;;;5.23;1.93;;;;;;;;;;5066211;28;20473;-73
2022/05/17 04:35:20;;;;;;;3.83;3.53;;;;;;;;;;5062497;28;20997;-73
2022/05/17 04:37:46;;;;;;;2.53;2.43;;;;;;;;;;5064414;28;20433;-73
2022/05/17 04:40:13;;;;;;;5.53;2.70;;;;;;;;;;5067299;28;20446;-72
2022/05/17 04:42:40;;;;;;;7.20;2.50;;;;;;;;;;5069588;28;20413;-72
2022/05/17 04:45:08;;;;;;;10.43;2.43;;;;;;;;;;5062279;28;20442;-72
2022/05/17 04:47:34;;;;;;;4.53;2.23;;;;;;;;;;5063131;28;20435;-72
2022/05/17 04:50:00;;;;;;;2.80;2.30;;;;;;;;;;5067288;28;20985;-73
2022/05/17 04:52:26;;;;;;;6.30;2.90;;;;;;;;;;5066985;28;20435;-72
2022/05/17 04:54:53;;;;;;;7.00;2.00;;;;;;;;;;5056185;28;20487;-73
2022/05/17 04:57:19;;;;;;;2.30;2.10;;;;;;;;;;5066976;28;20817;-72
2022/05/17 04:59:45;;;;;;;5.27;3.47;;;;;;;;;;5066183;28;20875;-73
2022/05/17 05:02:11;;;;;;;9.23;2.27;;;;;;;;;;5068038;28;20520;-72
2022/05/17 05:04:40;;;;;;;6.33;2.30;;;;;;;;;;5065860;28;20482;-73
2022/05/17 05:07:07;;;;;;;3.10;2.10;;;;;;;;;;5063691;28;20437;-73
2022/05/17 05:09:33;;;;;;;5.20;2.47;;;;;;;;;;5059429;28;20452;-72
2022/05/17 05:11:59;;;;;;;3.00;2.63;;;;;;;;;;5068761;28;20437;-73
2022/05/17 05:14:25;;;;;;;5.40;2.40;;;;;;;;;;5068252;28;20491;-73
2022/05/17 05:16:51;;;;;;;2.57;2.47;;;;;;;;;;5072370;28;20947;-72
2022/05/17 05:19:17;;;;;;;4.00;2.53;;;;;;;;;;5063631;28;20434;-73
2022/05/17 05:21:43;;;;;;;2.50;2.40;;;;;;;;;;5073125;28;20433;-73
2022/05/17 05:24:11;;;;;;;5.20;2.93;;;;;;;;;;5067164;28;20524;-73
2022/05/17 05:26:37;;;;;;;3.00;2.80;;;;;;;;;;5067471;28;20433;-73
2022/05/17 05:29:03;;;;;;;3.80;1.90;;;;;;;;;;5066597;28;20433;-73
2022/05/17 05:31:29;;;;;;;1.97;1.83;;;;;;;;;;5066877;28;20434;-73
2022/05/17 05:33:55;;;;;;;9.50;2.80;;;;;;;;;;5067144;28;20480;-74
2022/05/17 05:36:21;;;;;;;11.07;2.50;;;;;;;;;;5066985;28;20444;-73
2022/05/17 05:38:48;;;;;;;3.93;2.37;;;;;;;;;;5066913;28;20429;-73
2022/05/17 05:41:14;;;;;;;2.43;2.23;;;;;;;;;;5072154;28;20429;-73
2022/05/17 05:43:40;;;;;;;3.53;2.50;;;;;;;;;;5067505;28;20436;-73
2022/05/17 05:46:06;;;;;;;7.40;3.27;;;;;;;;;;5069402;28;21726;-73
2022/05/17 05:48:32;;;;;;;2.97;2.30;;;;;;;;;;5069471;28;20476;-72
2022/05/17 05:50:58;;;;;;;1.83;1.73;;;;;;;;;;5070068;28;20437;-73
2022/05/17 05:53:24;;;;;;;2.43;2.20;;;;;;;;;;5069788;28;20482;-73
2022/05/17 05:55:54;;;;;;;4.40;2.07;;;;;;;;;;5066021;28;20489;-73
2022/05/17 05:58:20;;;;;;;4.93;2.07;;;;;;;;;;5064564;28;20944;-72
2022/05/17 06:00:46;;;;;;;2.00;2.00;;;;;;;;;;5066218;28;20486;-72
2022/05/17 06:03:12;;;;;;;2.53;2.47;;;;;;;;;;5070095;28;21142;-72
2022/05/17 06:05:38;;;;;;;5.40;2.50;;;;;;;;;;5069527;28;21121;-73
2022/05/17 06:08:04;;;;;;;3.80;2.00;;;;;;;;;;5071342;28;20521;-73
2022/05/17 06:10:30;;;;;;;1.80;1.70;;;;;;;;;;5065975;28;20484;-72
2022/05/17 06:12:56;;;;;;;8.60;2.17;;;;;;;;;;5067170;28;20468;-74
2022/05/17 06:15:22;;;;;;;2.23;2.13;;;;;;;;;;5065355;28;20499;-73
2022/05/17 06:17:49;;;;;;;2.90;2.60;;;;;;;;;;5068068;28;20441;-74
2022/05/17 06:20:16;;;;;;;2.40;2.20;;;;;;;;;;5069973;28;20433;-75
2022/05/17 06:22:42;;;;;;;8.07;2.50;;;;;;;;;;5069592;28;20448;-74
2022/05/17 06:25:08;;;;;;;2.30;2.20;;;;;;;;;;5068206;28;20451;-76
2022/05/17 06:27:34;;;;;;;2.50;2.30;;;;;;;;;;5070539;28;20426;-73
2022/05/17 06:30:00;;;;;;;11.40;2.63;;;;;;;;;;5069214;28;20429;-75
2022/05/17 06:32:26;;;;;;;2.60;2.27;;;;;;;;;;5070456;28;20418;-74
2022/05/17 06:34:52;;;;;;;8.03;1.93;;;;;;;;;;5069491;28;20903;-75
2022/05/17 06:37:18;;;;;;;7.13;1.53;;;;;;;;;;5071783;28;20417;-74
2022/05/17 06:39:45;;;;;;;5.13;2.20;;;;;;;;;;5068611;28;20857;-76
2022/05/17 06:42:11;;;;;;;3.03;2.20;;;;;;;;;;5070863;28;20438;-74
2022/05/17 06:44:37;;;;;;;2.80;2.57;;;;;;;;;;5069958;28;20806;-73
2022/05/17 06:47:04;;;;;;;13.73;2.90;;;;;;;;;;5069944;28;20462;-73
2022/05/17 06:49:30;;;;;;;6.00;2.73;;;;;;;;;;5069748;28;20470;-73
2022/05/17 06:51:57;;;;;;;3.50;2.73;;;;;;;;;;5070128;28;20425;-73
2022/05/17 06:54:24;;;;;;;3.27;3.00;;;;;;;;;;5069268;28;20485;-73
2022/05/17 06:56:50;;;;;;;2.70;2.70;;;;;;;;;;5069283;28;20429;-73
2022/05/17 06:59:16;;;;;;;3.00;2.63;;;;;;;;;;5071284;28;20785;-76
2022/05/17 07:01:42;;;;;;;1.93;1.90;;;;;;;;;;5071122;28;20479;-75
2022/05/17 07:04:08;;;;;;;2.97;2.60;;;;;;;;;;5066766;28;20456;-73
2022/05/17 07:06:34;;;;;;;3.90;2.70;;;;;;;;;;5070938;28;20852;-75
2022/05/17 07:09:00;;;;;;;8.33;2.83;;;;;;;;;;5069656;28;21015;-75
2022/05/17 07:14:10;;;;;;;2.97;2.80;;;;;;;;;;5070599;28;20476;-74
2022/05/17 07:16:36;;;;;;;2.67;2.43;;;;;;;;;;5070950;28;20409;-74
2022/05/17 07:19:02;;;;;;;7.10;2.27;;;;;;;;;;5068353;28;20956;-74
2022/05/17 07:21:28;;;;;;;2.67;2.47;;;;;;;;;;5070923;28;20428;-74
2022/05/17 07:23:55;;;;;;;3.17;2.77;;;;;;;;;;5069379;28;20405;-74
2022/05/17 07:26:21;;;;;;;8.40;3.13;;;;;;;;;;5070556;28;20406;-74
2022/05/17 07:28:47;;;;;;;3.57;2.87;;;;;;;;;;5070587;28;20414;-75
2022/05/17 07:31:14;;;;;;;2.97;2.70;;;;;;;;;;5070330;28;20421;-74
2022/05/17 07:33:40;;;;;;;5.00;2.60;;;;;;;;;;5069289;28;20454;-75
2022/05/17 07:36:07;;;;;;;3.33;3.03;;;;;;;;;;5065733;28;21007;-74
2022/05/17 07:38:34;;;;;;;2.80;2.67;;;;;;;;;;5068278;28;20437;-74
2022/05/17 07:41:00;;;;;;;4.23;3.83;;;;;;;;;;5070189;28;20447;-74
2022/05/17 07:43:26;;;;;;;8.40;3.23;;;;;;;;;;5070067;28;20857;-75
2022/05/17 07:45:52;;;;;;;3.00;2.80;;;;;;;;;;5069805;28;20417;-74
2022/05/17 07:48:22;;;;;;;2.83;2.63;;;;;;;;;;5070167;28;20459;-73
2022/05/17 07:50:49;;;;;;;3.20;2.90;;;;;;;;;;5067523;28;20800;-75
2022/05/17 07:53:16;;;;;;;5.93;2.90;;;;;;;;;;5070016;28;20436;-75
2022/05/17 07:55:42;;;;;;;2.47;2.33;;;;;;;;;;5069168;28;20787;-75
2022/05/17 07:58:09;;;;;;;3.83;2.63;;;;;;;;;;5068682;28;20422;-75
2022/05/17 08:00:36;;;;;;;2.07;1.97;;;;;;;;;;5068126;28;20434;-74
2022/05/17 08:03:04;;;;;;;11.10;3.37;;;;;;;;;;5070228;28;20414;-75
2022/05/17 08:05:31;;;;;;;7.63;2.73;;;;;;;;;;5067903;28;20790;-75
2022/05/17 08:07:57;;;;;;;3.77;3.50;;;;;;;;;;5069051;28;20945;-75
2022/05/17 08:10:24;;;;;;;6.80;2.60;;;;;;;;;;5069380;28;20421;-74
2022/05/17 08:12:50;;;;;;;6.07;3.40;;;;;;;;;;5069760;28;20414;-75
2022/05/17 08:15:17;;;;;;;5.20;2.90;;;;;;;;;;5069433;28;20480;-75
2022/05/17 08:17:43;;;;;;;3.50;3.30;;;;;;;;;;5069691;28;20984;-75
2022/05/17 08:20:12;;;;;;;2.80;2.60;;;;;;;;;;5069266;28;20425;-75
2022/05/17 08:22:42;;;;;;;9.40;2.80;;;;;;;;;;5066322;28;20449;-74
2022/05/17 08:27:55;;;;;;;15.07;3.00;;;;;;;;;;5069904;28;20432;-75
2022/05/17 08:30:22;;;;;;;6.33;3.23;;;;;;;;;;5068289;28;20473;-74
2022/05/17 08:35:49;;;;;;;6.43;2.47;;;;;;;;;;5068733;28;20508;-73
2022/05/17 08:38:17;;;;;;;3.00;2.80;;;;;;;;;;5069150;28;20417;-74
2022/05/17 08:40:55;;;;;;;3.20;3.00;;;;;;;;;;5068931;28;20422;-74
2022/05/17 08:43:21;;;;;;;3.80;2.07;;;;;;;;;;5069499;28;20418;-74
2022/05/17 08:46:10;;;;;;;2.40;2.20;;;;;;;;;;5069062;28;20428;-75
2022/05/17 08:48:42;;;;;;;5.77;3.07;;;;;;;;;;5049740;28;20301;-74
2022/05/17 08:51:08;;;;;;;5.57;2.60;;;;;;;;;;5069071;28;21002;-75
2022/05/17 08:53:34;;;;;;;2.70;2.60;;;;;;;;;;5065939;28;20426;-75
2022/05/17 08:56:00;;;;;;;5.40;2.73;;;;;;;;;;5065797;28;20437;-74
2022/05/17 08:58:28;;;;;;;3.73;2.27;;;;;;;;;;5069228;28;20425;-74
2022/05/17 09:01:07;;;;;;;2.40;2.03;;;;;;;;;;5065453;28;20450;-74
2022/05/17 09:03:33;;;;;;;7.67;2.47;;;;;;;;;;5067156;28;20447;-75
2022/05/17 09:06:16;;;;;;;5.50;3.53;;;;;;;;;;5068886;28;20516;-74
2022/05/17 09:08:47;;;;;;;5.67;2.53;;;;;;;;;;5069227;28;20429;-74
2022/05/17 09:11:16;;;;;;;12.17;2.80;;;;;;;;;;5068932;28;20490;-74
2022/05/17 09:13:49;;;;;;;3.40;3.07;;;;;;;;;;5067356;28;20471;-75
2022/05/17 09:16:15;;;;;;;5.80;3.00;;;;;;;;;;5067352;28;21001;-74
2022/05/17 09:18:44;;;;;;;5.83;3.97;;;;;;;;;;5066495;28;20512;-75
2022/05/17 09:21:30;;;;;;;22.07;3.10;;;;;;;;;;5067760;28;20434;-74
2022/05/17 09:24:02;;;;;;;3.30;2.53;;;;;;;;;;5068055;28;20425;-73
2022/05/17 09:26:28;;;;;;;4.77;2.80;;;;;;;;;;5067018;28;20440;-73
2022/05/17 09:29:13;;;;;;;6.00;2.60;;;;;;;;;;5069029;28;20489;-73
2022/05/17 09:31:39;;;;;;;5.93;3.13;;;;;;;;;;5068988;28;20409;-75
2022/05/17 09:34:06;;;;;;;7.10;4.00;;;;;;;;;;5068824;28;20810;-76
2022/05/17 09:36:43;;;;;;;4.57;3.40;;;;;;;;;;5065903;28;20426;-76
2022/05/17 09:39:11;;;;;;;6.53;4.37;;;;;;;;;;5067325;28;20433;-76
2022/05/17 09:41:38;;;;;;;2.93;2.57;;;;;;;;;;5067689;28;20508;-75
2022/05/17 09:44:12;;;;;;;3.03;2.73;;;;;;;;;;5068624;28;20429;-76
2022/05/17 09:46:46;;;;;;;3.57;3.17;;;;;;;;;;5068978;28;20406;-75
2022/05/17 09:52:32;;;;;;;6.53;2.33;;;;;;;;;;5070158;28;20428;-75
2022/05/17 09:55:06;;;;;;;2.90;2.67;;;;;;;;;;5071692;28;20545;-76
2022/05/17 09:57:32;;;;;;;3.37;2.30;;;;;;;;;;5072500;28;20513;-76
2022/05/17 10:00:12;;;;;;;4.03;2.03;;;;;;;;;;5072109;28;20949;-77
2022/05/17 10:03:00;;;;;;;2.23;2.13;;;;;;;;;;5072439;28;20910;-76
2022/05/17 10:05:40;;;;;;;1.80;1.80;;;;;;;;;;5070670;28;20486;-75
2022/05/17 10:08:13;;;;;;;1.70;1.60;;;;;;;;;;5071979;28;20430;-77
2022/05/17 10:10:43;;;;;;;7.10;1.70;;;;;;;;;;5071729;28;21106;-76
2022/05/17 10:13:09;;;;;;;1.80;1.70;;;;;;;;;;5070849;28;20433;-75
2022/05/17 10:15:37;;;;;;;1.70;1.60;;;;;;;;;;5071753;28;20484;-77
2022/05/17 10:18:07;;;;;;;2.73;1.87;;;;;;;;;;5069000;28;20483;-75
2022/05/17 10:20:42;;;;;;;2.17;2.10;;;;;;;;;;5071772;28;21016;-75
2022/05/17 10:23:15;;;;;;;1.17;1.17;;;;;;;;;;5070847;28;20409;-75
2022/05/17 10:25:43;;;;;;;1.90;1.80;;;;;;;;;;5068569;28;20417;-76
2022/05/17 10:28:13;;;;;;;8.83;2.90;;;;;;;;;;5070722;28;20428;-76
2022/05/17 10:30:41;;;;;;;1.73;1.73;;;;;;;;;;5071435;28;20418;-75
2022/05/17 10:33:12;;;;;;;3.87;1.83;;;;;;;;;;5069846;28;20417;-77
2022/05/17 10:35:43;;;;;;;2.50;1.57;;;;;;;;;;5071468;28;20980;-76
2022/05/17 10:38:10;;;;;;;2.50;2.00;;;;;;;;;;5071870;28;20482;-75
2022/05/17 10:40:43;;;;;;;2.87;2.17;;;;;;;;;;5071156;28;20433;-75
2022/05/17 10:43:09;;;;;;;2.00;1.77;;;;;;;;;;5072004;28;20402;-76
2022/05/17 10:45:36;;;;;;;2.10;1.40;;;;;;;;;;5068325;28;20445;-77
2022/05/17 10:48:14;;;;;;;13.90;1.67;;;;;;;;;;5067118;28;20417;-76
2022/05/17 10:50:56;;;;;;;3.03;1.70;;;;;;;;;;5069135;28;20441;-74
2022/05/17 10:53:22;;;;;;;3.43;2.00;;;;;;;;;;5071392;28;20841;-76
2022/05/17 10:55:53;;;;;;;11.00;1.70;;;;;;;;;;5069095;28;21027;-77
2022/05/17 10:58:24;;;;;;;2.60;2.17;;;;;;;;;;5069190;28;20433;-77
2022/05/17 11:00:58;;;;;;;6.97;2.90;;;;;;;;;;5070985;28;20422;-77
2022/05/17 11:03:30;;;;;;;5.57;1.97;;;;;;;;;;5069622;28;20442;-76
2022/05/17 11:05:59;;;;;;;1.70;1.63;;;;;;;;;;5069174;28;20462;-76
2022/05/17 11:08:44;;;;;;;2.20;1.83;;;;;;;;;;5071295;28;20935;-76
2022/05/17 11:11:09;;;;;;;4.00;1.83;;;;;;;;;;5071459;28;20471;-77
2022/05/17 11:13:46;;;;;;;1.83;1.60;;;;;;;;;;5064099;28;20425;-75
2022/05/17 11:16:20;;;;;;;1.77;1.67;;;;;;;;;;5066652;28;20429;-77
2022/05/17 11:18:46;;;;;;;2.53;2.43;;;;;;;;;;5070490;28;20438;-82
2022/05/17 11:21:17;;;;;;;1.80;1.70;;;;;;;;;;5069820;28;20425;-76
2022/05/17 11:24:02;;;;;;;6.63;1.80;;;;;;;;;;5068322;28;20552;-78
2022/05/17 11:26:34;;;;;;;2.03;1.77;;;;;;;;;;5069566;28;20418;-78
2022/05/17 11:29:12;;;;;;;1.50;1.40;;;;;;;;;;5068915;28;20433;-76
2022/05/17 11:32:01;;;;;;;1.93;1.83;;;;;;;;;;5069895;28;20434;-79
2022/05/17 11:34:32;;;;;;;2.57;1.33;;;;;;;;;;5067655;28;20481;-76
2022/05/17 11:37:00;;;;;;;2.20;2.10;;;;;;;;;;5069469;28;20461;-73
2022/05/17 11:39:36;;;;;;;7.63;2.23;;;;;;;;;;5069183;28;20429;-76
2022/05/17 11:42:06;;;;;;;2.80;2.20;;;;;;;;;;5068844;28;21345;-78
2022/05/17 11:44:46;;;;;;;1.50;1.17;;;;;;;;;;5068593;28;20519;-78
2022/05/17 11:47:41;;;;;;;1.80;1.70;;;;;;;;;;5067427;28;20424;-75
2022/05/17 11:50:18;;;;;;;1.60;1.23;;;;;;;;;;5029069;28;20487;-78
2022/05/17 11:52:45;;;;;;;1.80;1.63;;;;;;;;;;5069842;28;20436;-76
2022/05/17 11:55:12;;;;;;;4.40;1.50;;;;;;;;;;5065503;28;20533;-76
2022/05/17 11:57:41;;;;;;;3.23;1.10;;;;;;;;;;5064912;28;20552;-68
2022/05/17 12:00:30;;;;;;;8.67;3.30;;;;;;;;;;5068684;28;20441;-67
2022/05/17 12:02:58;;;;;;;1.40;1.30;;;;;;;;;;5064779;28;20551;-76
2022/05/17 12:05:45;;;;;;;2.70;1.80;;;;;;;;;;5069483;28;20901;-74
2022/05/17 12:08:31;;;;;;;1.87;1.03;;;;;;;;;;5069112;28;20249;-75
2022/05/17 12:11:12;;;;;;;1.13;1.00;;;;;;;;;;5060530;28;20460;-77
2022/05/17 12:13:53;;;;;;;1.23;1.20;;;;;;;;;;5065167;28;20775;-76
2022/05/17 12:16:22;;;;;;;2.30;1.30;;;;;;;;;;5064631;28;20495;-76
2022/05/17 12:18:51;;;;;;;1.80;1.20;;;;;;;;;;5069630;28;20421;-78
2022/05/17 12:21:26;;;;;;;1.60;1.50;;;;;;;;;;5063679;28;21783;-77
2022/05/17 12:24:14;;;;;;;3.30;1.97;;;;;;;;;;5064542;28;20444;-78
2022/05/17 12:26:55;;;;;;;3.23;1.33;;;;;;;;;;5065884;28;20458;-77
2022/05/17 12:32:19;;;;;;;2.97;1.83;;;;;;;;;;5069221;28;20408;-76
2022/05/17 12:34:51;;;;;;;5.00;1.10;;;;;;;;;;5063376;28;20553;-77
2022/05/17 12:37:17;;;;;;;1.53;1.53;;;;;;;;;;5069498;28;20449;-77
2022/05/17 12:45:22;;;;;;;3.20;1.10;;;;;;;;;;5065770;28;20436;-77
2022/05/17 12:47:50;;;;;;;1.10;1.10;;;;;;;;;;5068195;28;20428;-76
2022/05/17 12:50:18;;;;;;;1.27;1.27;;;;;;;;;;5066633;28;20552;-77
2022/05/17 12:52:46;;;;;;;2.30;1.20;;;;;;;;;;5065134;28;20426;-75
2022/05/17 12:55:17;;;;;;;1.30;1.30;;;;;;;;;;5066170;28;20967;-76
2022/05/17 12:57:43;;;;;;;7.53;1.10;;;;;;;;;;5066135;28;20425;-76
2022/05/17 13:00:17;;;;;;;1.30;1.30;;;;;;;;;;5064486;28;20433;-76
2022/05/17 13:02:43;;;;;;;0.77;0.77;;;;;;;;;;5060623;28;20429;-77
2022/05/17 13:05:29;;;;;;;0.90;0.90;;;;;;;;;;5065033;28;20806;-75
2022/05/17 13:07:59;;;;;;;1.23;1.13;;;;;;;;;;5063904;28;20516;-78
2022/05/17 13:10:25;;;;;;;3.60;1.07;;;;;;;;;;5063041;28;20429;-79
2022/05/17 13:12:51;;;;;;;1.70;1.60;;;;;;;;;;5058519;28;20429;-77
2022/05/17 13:15:17;;;;;;;5.37;1.37;;;;;;;;;;5065030;28;20509;-76
2022/05/17 13:17:44;;;;;;;2.40;1.17;;;;;;;;;;5067848;28;20783;-77
2022/05/17 13:20:14;;;;;;;1.63;1.53;;;;;;;;;;5065950;28;20424;-77
2022/05/17 13:22:42;;;;;;;1.43;1.33;;;;;;;;;;5069504;28;20426;-78
2022/05/17 13:25:09;;;;;;;1.27;0.90;;;;;;;;;;5071327;28;20518;-75
2022/05/17 13:27:36;;;;;;;3.17;1.20;;;;;;;;;;5067498;28;20450;-77
2022/05/17 13:30:05;;;;;;;2.30;0.90;;;;;;;;;;5070136;28;20963;-77
2022/05/17 13:32:38;;;;;;;3.80;1.20;;;;;;;;;;5072630;28;20455;-76
2022/05/17 13:35:06;;;;;;;1.47;1.13;;;;;;;;;;5072502;28;20476;-77
2022/05/17 13:37:33;;;;;;;0.90;0.90;;;;;;;;;;5072866;28;20414;-78
2022/05/17 13:40:02;;;;;;;2.53;1.10;;;;;;;;;;5069440;28;20933;-77
2022/05/17 13:42:31;;;;;;;1.47;1.37;;;;;;;;;;5070908;28;20422;-77
2022/05/17 13:44:58;;;;;;;1.33;1.03;;;;;;;;;;5064440;28;20514;-78
2022/05/17 13:47:27;;;;;;;0.60;0.60;;;;;;;;;;5071319;28;20424;-76
2022/05/17 13:49:58;;;;;;;5.90;1.47;;;;;;;;;;5070037;28;21477;-76
2022/05/17 13:52:28;;;;;;;0.73;0.73;;;;;;;;;;5070471;28;20844;-77
2022/05/17 13:54:58;;;;;;;2.57;1.50;;;;;;;;;;5067241;28;20826;-77
2022/05/17 13:57:46;;;;;;;10.63;1.30;;;;;;;;;;5072451;28;20569;-76
2022/05/17 14:00:18;;;;;;;2.10;0.93;;;;;;;;;;5068737;28;20433;-77
2022/05/17 14:02:47;;;;;;;1.33;1.33;;;;;;;;;;5069764;28;20978;-76
2022/05/17 14:05:29;;;;;;;1.30;1.20;;;;;;;;;;5071874;28;20432;-77
2022/05/17 14:11:49;;;;;;;1.80;1.23;;;;;;;;;;5070708;28;20438;-76
2022/05/17 14:13:30;;;;;;;3.83;1.47;;;;;;;;;;5071782;28;20983;-74
2022/05/17 14:15:57;;;;;;;1.60;1.50;;;;;;;;;;5065820;28;20477;-75
2022/05/17 14:18:27;;;;;;;2.53;1.30;;;;;;;;;;5069271;28;20444;-78
2022/05/17 14:20:54;;;;;;;1.73;1.63;;;;;;;;;;5071638;28;20798;-78
2022/05/17 14:23:20;;;;;;;1.40;1.37;;;;;;;;;;5064217;28;20429;-75
2022/05/17 14:25:46;;;;;;;9.13;1.10;;;;;;;;;;5065361;28;20430;-78
2022/05/17 14:28:12;;;;;;;6.00;1.57;;;;;;;;;;5062050;28;20495;-76
2022/05/17 14:30:38;;;;;;;1.33;1.33;;;;;;;;;;5064477;28;20937;-77
2022/05/17 14:33:05;;;;;;;1.30;1.30;;;;;;;;;;5068888;28;20511;-77
2022/05/17 14:35:31;;;;;;;1.50;1.23;;;;;;;;;;5063426;28;20474;-75
2022/05/17 14:37:57;;;;;;;2.07;1.97;;;;;;;;;;5067482;28;20418;-77
2022/05/17 14:40:23;;;;;;;4.87;1.80;;;;;;;;;;5062126;28;20448;-75
2022/05/17 14:42:49;;;;;;;6.13;1.50;;;;;;;;;;5069852;28;20445;-74
2022/05/17 14:45:15;;;;;;;4.07;1.87;;;;;;;;;;5067257;28;20426;-77
2022/05/17 14:47:42;;;;;;;1.60;1.50;;;;;;;;;;5065264;28;20509;-77
2022/05/17 14:50:10;;;;;;;2.50;1.30;;;;;;;;;;5062246;28;20481;-77
2022/05/17 14:52:36;;;;;;;1.57;1.57;;;;;;;;;;5067740;28;20939;-74
2022/05/17 14:55:02;;;;;;;1.43;1.43;;;;;;;;;;5067002;28;20502;-76
2022/05/17 14:57:28;;;;;;;2.10;2.00;;;;;;;;;;5068497;28;20928;-78
2022/05/17 14:59:54;;;;;;;4.60;1.77;;;;;;;;;;5060980;28;20456;-77
2022/05/17 15:02:20;;;;;;;1.80;1.70;;;;;;;;;;5063020;28;20500;-77
2022/05/17 15:04:46;;;;;;;1.73;1.40;;;;;;;;;;5063038;28;20437;-77
2022/05/17 15:07:23;;;;;;;2.40;1.67;;;;;;;;;;5063727;28;20426;-76
2022/05/17 15:10:02;;;;;;;4.20;1.60;;;;;;;;;;5068448;28;20433;-76
2022/05/17 15:12:28;;;;;;;1.67;1.57;;;;;;;;;;5070318;28;20558;-75
2022/05/17 15:14:55;;;;;;;3.23;1.40;;;;;;;;;;5068610;28;20485;-77